IE-0038 weather

O'Loughlin Airstrip
County Kildare, Ireland

Public forecast

Using degrees Celsius for public forecast. Weather courtesy of forecast.io.

METAR (pilot weather report)

Closest report is Casement Air Base, 21.8 nm (40.4 km) ENE. Retrieved 2019/06/24 16:00 UTC (46 minutes ago):

EIME 241600Z 08009KT 9999 FEW010 BKN024 18/15 Q1017

TAF (pilot weather forecast)

Closest forecast is Dublin Airport, 30.7 nm (56.9 km) ENE. Retrieved 2019/06/24 12:09 UTC (5 hours ago):

TAF EIDW 241100Z 2412/2512 06007KT 9999 FEW015 BKN030 TEMPO 2412/2414 4000 SHRA BKN009 SCT020CB PROB30 TEMPO 2412/2414 2500 TSRA BKN014CB TEMPO 2414/2420 -SHRA SCT020CB BECMG 2419/2421 VRB03KT PROB30 TEMPO 2421/2506 2500 BR BKN002 BECMG 2422/2424 01005KT